createdAt,value
2019-03-28T00:08:41.349Z,70.59
2019-03-28T00:11:12.199Z,69.47
2019-03-28T00:13:42.801Z,69.78
2019-03-28T00:16:13.401Z,69.56
2019-03-28T00:18:43.967Z,72.41
2019-03-28T00:21:14.616Z,73.57
2019-03-28T00:24:13.318Z,72.63
2019-03-28T00:26:43.897Z,73.44
2019-03-28T00:29:14.516Z,70.33
2019-03-28T00:31:47.768Z,70.89
2019-03-28T00:34:17.474Z,68.09
2019-03-28T00:36:48.744Z,72.70
2019-03-28T00:39:19.463Z,68.17
2019-03-28T00:41:50.104Z,68.61
2019-03-28T00:44:20.725Z,68.12
2019-03-28T00:46:51.344Z,70.10
2019-03-28T00:49:22.036Z,71.48
2019-03-28T00:51:52.685Z,69.98
2019-03-28T00:54:23.277Z,70.41
2019-03-28T00:56:53.901Z,71.75
2019-03-28T01:07:47.838Z,67.87
2019-03-28T01:10:19.469Z,70.98
2019-03-28T01:12:51.152Z,70.98
2019-03-28T01:15:21.805Z,71.24
2019-03-28T01:33:04.035Z,67.93
2019-03-28T01:35:35.131Z,68.02
2019-03-28T01:38:06.251Z,71.50
2019-03-28T01:40:37.241Z,69.22
2019-03-28T01:43:07.812Z,70.84
2019-03-28T01:45:38.783Z,69.69
2019-03-28T01:48:09.629Z,70.98
2019-03-28T01:50:40.665Z,70.41
2019-03-28T01:53:12.271Z,70.96
2019-03-28T01:55:43.237Z,69.12
2019-03-28T01:58:13.892Z,67.31
2019-03-28T02:00:45.271Z,68.51
2019-03-28T02:03:15.899Z,67.16
2019-03-28T02:05:46.505Z,68.71
2019-03-28T02:08:17.117Z,72.14
2019-03-28T02:10:47.710Z,70.64
2019-03-28T02:13:18.327Z,70.41
2019-03-28T02:15:48.940Z,71.45
2019-03-28T02:18:19.555Z,72.50
2019-03-28T02:20:50.199Z,71.39
2019-03-28T02:23:20.843Z,71.43
2019-03-28T02:25:51.735Z,71.50
2019-03-28T02:28:22.386Z,71.08
2019-03-28T02:30:52.985Z,68.60
2019-03-28T02:41:01.568Z,75.50
2019-03-28T02:58:07.298Z,76.87
2019-03-28T03:00:38.184Z,78.92
2019-03-28T03:03:09.237Z,81.39
2019-03-28T03:05:39.872Z,81.94
2019-03-28T03:08:10.526Z,82.67
2019-03-28T03:10:41.244Z,81.95
2019-03-28T03:13:11.868Z,82.25
2019-03-28T03:15:42.477Z,80.18
2019-03-28T03:18:13.103Z,78.86
2019-03-28T03:20:44.212Z,78.24
2019-03-28T03:23:15.254Z,75.90
2019-03-28T03:25:45.878Z,78.60
2019-03-28T03:28:16.504Z,79.87
2019-03-28T03:30:47.739Z,81.89
2019-03-28T03:33:18.491Z,82.79
2019-03-28T03:35:49.079Z,81.69
2019-03-28T03:38:19.728Z,81.47
2019-03-28T03:40:50.302Z,79.28
2019-03-28T03:43:20.957Z,79.20
2019-03-28T03:45:51.566Z,80.31
2019-03-28T03:48:22.255Z,80.94
2019-03-28T03:50:52.854Z,82.41
2019-03-28T03:53:23.474Z,81.48
2019-03-28T03:55:54.124Z,79.27
2019-03-28T03:58:25.071Z,78.84
2019-03-28T04:00:55.923Z,81.76
2019-03-28T04:03:26.559Z,80.17
2019-03-28T04:05:57.159Z,78.96
2019-03-28T04:08:28.038Z,78.68
2019-03-28T04:10:58.948Z,77.63
2019-03-28T04:13:29.586Z,78.36
2019-03-28T04:16:00.825Z,78.63
2019-03-28T04:18:31.417Z,76.79
2019-03-28T04:21:02.088Z,77.89
2019-03-28T04:23:32.717Z,77.04
2019-03-28T04:26:03.663Z,77.26
2019-03-28T04:28:34.257Z,77.34
2019-03-28T04:31:05.113Z,77.64
2019-03-28T04:33:35.943Z,77.25
2019-03-28T04:36:06.667Z,79.37
2019-03-28T04:38:37.531Z,78.19
2019-03-28T04:41:08.160Z,78.35
2019-03-28T04:43:38.853Z,77.32
2019-03-28T04:46:10.009Z,76.82
2019-03-28T04:48:40.607Z,76.86
2019-03-28T04:51:11.922Z,76.66
2019-03-28T04:53:42.781Z,76.27
2019-03-28T04:56:13.658Z,76.62
2019-03-28T04:58:45.084Z,77.61
2019-03-28T05:01:15.698Z,77.71
2019-03-28T05:03:46.395Z,78.91
2019-03-28T05:06:17.016Z,78.33
2019-03-28T05:08:47.822Z,77.86
2019-03-28T05:11:18.460Z,79.96
2019-03-28T05:13:49.053Z,78.31
2019-03-28T05:16:19.685Z,81.78
2019-03-28T05:18:50.266Z,81.19
2019-03-28T05:21:20.905Z,81.74
2019-03-28T05:23:52.314Z,80.07
2019-03-28T05:26:22.949Z,79.19
2019-03-28T05:28:57.845Z,78.67
2019-03-28T05:31:26.689Z,78.10
2019-03-28T05:33:57.283Z,77.39
2019-03-28T05:36:28.956Z,77.36
2019-03-28T05:38:59.808Z,78.25
2019-03-28T05:41:30.439Z,77.90
2019-03-28T05:44:01.329Z,78.13
2019-03-28T05:46:31.948Z,82.22
2019-03-28T05:49:02.555Z,84.65
2019-03-28T05:51:33.218Z,85.63
2019-03-28T05:54:03.831Z,85.53
2019-03-28T05:56:34.472Z,85.60
2019-03-28T05:59:10.780Z,85.73
2019-03-28T06:01:37.620Z,82.23
2019-03-28T06:04:08.427Z,81.42
2019-03-28T06:06:39.371Z,82.48
2019-03-28T06:09:10.273Z,82.84
2019-03-28T06:11:40.885Z,81.52
2019-03-28T06:14:11.481Z,80.86
2019-03-28T06:16:42.884Z,83.41
2019-03-28T06:19:13.777Z,84.04
2019-03-28T06:21:45.029Z,83.50
2019-03-28T06:24:15.712Z,81.80
2019-03-28T06:26:50.002Z,80.42
2019-03-28T06:29:23.956Z,78.54
2019-03-28T06:31:55.545Z,77.71
2019-03-28T06:34:25.037Z,76.39
2019-03-28T06:36:55.670Z,76.64
2019-03-28T06:39:26.259Z,76.23
2019-03-28T06:41:56.945Z,76.55
2019-03-28T06:44:27.538Z,75.54
2019-03-28T06:46:58.205Z,77.70
2019-03-28T06:49:31.226Z,75.91
2019-03-28T06:52:01.509Z,76.12
2019-03-28T06:54:32.877Z,76.32
2019-03-28T06:57:03.611Z,75.91
2019-03-28T06:59:37.708Z,75.13
2019-03-28T07:02:06.646Z,74.70
2019-03-28T07:04:37.649Z,75.33
2019-03-28T07:07:09.958Z,76.46
2019-03-28T07:09:40.594Z,79.46
2019-03-28T07:12:11.508Z,76.83
2019-03-28T07:14:42.461Z,77.11
2019-03-28T07:17:13.109Z,75.44
2019-03-28T07:19:43.705Z,75.62
2019-03-28T07:22:14.401Z,74.84
2019-03-28T07:24:45.017Z,75.76
2019-03-28T07:27:15.845Z,79.46
2019-03-28T07:29:51.098Z,79.64
2019-03-28T07:32:19.052Z,77.37
2019-03-28T07:34:49.658Z,77.11
2019-03-28T07:37:20.291Z,74.39
2019-03-28T07:39:50.906Z,72.81
2019-03-28T07:42:21.530Z,75.16
2019-03-28T07:44:52.150Z,74.67
2019-03-28T07:47:22.761Z,74.18
2019-03-28T07:49:53.615Z,72.19
2019-03-28T07:52:24.277Z,75.59
2019-03-28T07:54:54.887Z,78.41
2019-03-28T07:57:25.564Z,78.99
2019-03-28T08:00:04.156Z,75.78
2019-03-28T08:02:28.547Z,74.02
2019-03-28T08:05:01.526Z,72.19
2019-03-28T08:07:43.963Z,74.17
2019-03-28T08:10:04.148Z,72.88
2019-03-28T08:12:34.779Z,75.40
2019-03-28T08:15:06.449Z,71.73
2019-03-28T08:17:37.066Z,70.35
2019-03-28T08:20:10.246Z,70.59
2019-03-28T08:22:41.155Z,71.67
2019-03-28T08:25:13.097Z,73.95
2019-03-28T08:27:44.645Z,72.93
2019-03-28T08:30:18.820Z,77.54
2019-03-28T08:32:48.797Z,74.89
2019-03-28T08:35:19.458Z,73.28
2019-03-28T08:37:50.534Z,74.88
2019-03-28T08:40:35.487Z,76.53
2019-03-28T08:43:06.599Z,75.24
2019-03-28T08:45:37.228Z,72.87
2019-03-28T08:48:08.009Z,72.28
2019-03-28T08:50:38.732Z,72.82
2019-03-28T08:53:09.367Z,76.27
2019-03-28T08:55:40.062Z,76.73
2019-03-28T08:58:10.667Z,76.79
2019-03-28T09:00:51.460Z,75.89
2019-03-28T09:03:13.720Z,79.45
2019-03-28T09:05:44.471Z,75.95
2019-03-28T09:08:15.400Z,73.23
2019-03-28T09:10:46.302Z,73.84
2019-03-28T09:13:17.024Z,77.26
2019-03-28T09:15:47.672Z,76.04
2019-03-28T09:18:18.431Z,72.68
2019-03-28T09:20:49.056Z,76.13
2019-03-28T09:23:19.933Z,76.54
2019-03-28T09:25:50.530Z,73.10
2019-03-28T09:28:21.173Z,70.89
2019-03-28T09:30:52.604Z,70.53
2019-03-28T09:33:23.930Z,69.46
2019-03-28T09:35:54.525Z,73.73
2019-03-28T09:38:25.286Z,74.25
2019-03-28T09:40:55.911Z,73.84
2019-03-28T09:43:26.546Z,74.57
2019-03-28T09:46:00.267Z,76.19
2019-03-28T09:48:29.584Z,78.65
2019-03-28T09:51:00.666Z,78.56
2019-03-28T09:53:31.720Z,77.77
2019-03-28T09:56:02.327Z,76.67
2019-03-28T09:58:33.949Z,77.41
2019-03-28T10:01:05.409Z,74.11
2019-03-28T10:03:36.051Z,75.50
2019-03-28T10:06:06.671Z,73.66
2019-03-28T10:08:37.390Z,74.46
2019-03-28T10:11:07.991Z,74.69
2019-03-28T10:13:39.702Z,77.18
2019-03-28T10:16:10.648Z,75.22
2019-03-28T10:18:41.642Z,77.12
2019-03-28T10:21:12.286Z,75.44
2019-03-28T10:23:43.636Z,77.36
2019-03-28T10:26:15.003Z,74.75
2019-03-28T10:28:45.769Z,74.09
2019-03-28T10:31:17.048Z,78.56
2019-03-28T10:33:47.832Z,77.26
2019-03-28T10:36:18.428Z,77.83
2019-03-28T10:38:49.099Z,78.53
2019-03-28T10:41:19.726Z,77.40
2019-03-28T10:43:50.964Z,77.33
2019-03-28T10:46:21.612Z,71.82
2019-03-28T10:48:54.474Z,72.56
2019-03-28T10:51:24.587Z,75.28
2019-03-28T10:53:55.222Z,75.44
2019-03-28T10:56:26.062Z,75.21
2019-03-28T10:58:56.677Z,74.04
2019-03-28T11:01:47.151Z,75.60
2019-03-28T11:03:59.913Z,73.25
2019-03-28T11:06:30.476Z,72.43
2019-03-28T11:09:01.909Z,73.28
2019-03-28T11:11:33.773Z,76.18
2019-03-28T11:14:04.493Z,76.38
2019-03-28T11:16:35.405Z,73.72
2019-03-28T11:19:06.567Z,75.77
2019-03-28T11:21:37.411Z,76.12
2019-03-28T11:24:08.020Z,76.00
2019-03-28T11:26:38.656Z,77.25
2019-03-28T11:29:09.266Z,76.96
2019-03-28T11:31:46.730Z,71.17
2019-03-28T11:34:12.791Z,72.66
2019-03-28T11:36:43.430Z,73.24
2019-03-28T11:39:14.374Z,77.52
2019-03-28T11:41:44.968Z,77.31
2019-03-28T11:44:15.590Z,75.18
2019-03-28T11:46:46.206Z,76.35
2019-03-28T11:49:17.587Z,74.21
2019-03-28T11:51:48.196Z,74.73
2019-03-28T11:54:18.861Z,74.82
2019-03-28T11:56:49.442Z,73.54
2019-03-28T11:59:20.091Z,72.63
2019-03-28T12:01:59.764Z,74.95
2019-03-28T12:04:23.035Z,71.17
2019-03-28T12:06:53.919Z,70.35
2019-03-28T12:09:24.886Z,67.37
2019-03-28T12:11:55.491Z,72.27
2019-03-28T12:14:26.122Z,71.95
2019-03-28T12:16:56.785Z,70.46
2019-03-28T12:19:27.438Z,72.89
2019-03-28T12:21:58.064Z,73.14
2019-03-28T12:24:28.740Z,73.95
2019-03-28T12:26:59.345Z,73.01
2019-03-28T12:29:29.984Z,72.87
2019-03-28T12:32:13.344Z,74.04
2019-03-28T12:34:32.942Z,73.38
2019-03-28T12:37:03.539Z,72.26
2019-03-28T12:39:34.796Z,72.79
2019-03-28T12:42:05.433Z,77.30
2019-03-28T12:44:36.062Z,76.96
2019-03-28T12:47:06.684Z,76.87
2019-03-28T12:49:37.649Z,76.42
2019-03-28T12:52:08.251Z,74.40
2019-03-28T12:54:39.879Z,71.57
2019-03-28T12:57:14.164Z,73.55
2019-03-28T12:59:43.403Z,75.50
2019-03-28T13:02:28.346Z,77.41
2019-03-28T13:04:46.858Z,78.15
2019-03-28T13:07:17.436Z,71.97
2019-03-28T13:09:49.067Z,72.66
2019-03-28T13:12:19.712Z,74.63
2019-03-28T13:14:50.320Z,72.01
2019-03-28T13:17:20.931Z,71.45
2019-03-28T13:19:51.559Z,74.32
2019-03-28T13:22:22.189Z,76.47
2019-03-28T13:24:52.804Z,74.06
2019-03-28T13:27:23.398Z,78.55
2019-03-28T13:29:55.146Z,77.83
2019-03-28T13:32:25.833Z,78.86
2019-03-28T13:34:56.444Z,79.93
2019-03-28T13:37:27.045Z,82.89
2019-03-28T13:39:57.676Z,83.50
2019-03-28T13:42:28.567Z,82.85
2019-03-28T13:44:59.208Z,80.71
2019-03-28T13:47:29.813Z,77.15
2019-03-28T13:50:01.209Z,76.72
2019-03-28T13:52:32.088Z,79.14
2019-03-28T13:55:02.729Z,78.74
2019-03-28T13:57:34.547Z,76.67
2019-03-28T14:00:07.475Z,80.16
2019-03-28T14:02:38.390Z,77.61
2019-03-28T14:05:09.101Z,76.98
2019-03-28T14:07:39.747Z,79.77
2019-03-28T14:10:11.592Z,75.03
2019-03-28T14:12:42.291Z,77.73
2019-03-28T14:15:12.920Z,74.44
2019-03-28T14:17:43.570Z,72.83
2019-03-28T14:20:14.689Z,70.27
2019-03-28T14:22:45.297Z,73.29
2019-03-28T14:25:16.498Z,75.01
2019-03-28T14:27:47.106Z,78.62
2019-03-28T14:30:17.993Z,77.39
2019-03-28T14:32:53.644Z,75.41
2019-03-28T14:35:21.529Z,73.95
2019-03-28T14:37:52.122Z,77.82
2019-03-28T14:40:22.838Z,75.10
2019-03-28T14:42:53.769Z,72.64
2019-03-28T14:45:24.375Z,74.01
2019-03-28T14:47:54.999Z,70.60
2019-03-28T14:50:36.768Z,71.57
2019-03-28T14:53:07.494Z,70.40
2019-03-28T14:55:38.158Z,72.36
2019-03-28T14:58:08.987Z,70.75
2019-03-28T15:00:50.517Z,69.83
2019-03-28T15:03:28.514Z,76.19
2019-03-28T15:05:55.510Z,75.18
2019-03-28T15:08:26.495Z,77.28
2019-03-28T15:10:57.108Z,73.69
2019-03-28T15:13:31.264Z,72.33
2019-03-28T15:16:01.845Z,71.86
2019-03-28T15:18:32.450Z,70.20
2019-03-28T15:21:03.080Z,70.99
2019-03-28T15:23:33.759Z,69.74
2019-03-28T15:26:04.836Z,71.69
2019-03-28T15:28:35.399Z,74.27
2019-03-28T15:31:06.303Z,69.79
2019-03-28T15:33:39.881Z,72.96
2019-03-28T15:36:09.196Z,71.88
2019-03-28T15:38:40.129Z,70.54
2019-03-28T15:41:11.912Z,69.71
2019-03-28T15:43:42.782Z,74.05
2019-03-28T15:46:13.436Z,72.55
2019-03-28T15:48:44.572Z,72.77
2019-03-28T15:51:15.203Z,77.02
2019-03-28T15:53:45.807Z,76.34
2019-03-28T15:56:16.591Z,79.55
2019-03-28T15:58:47.187Z,80.69
2019-03-28T16:01:17.817Z,79.34
2019-03-28T16:03:53.074Z,75.90
2019-03-28T16:06:22.554Z,74.89
2019-03-28T16:08:53.667Z,75.40
2019-03-28T16:11:24.836Z,78.24
2019-03-28T16:13:55.729Z,79.50
2019-03-28T16:16:26.427Z,76.80
2019-03-28T16:19:01.385Z,74.15
2019-03-28T16:21:31.376Z,76.86
2019-03-28T16:24:01.997Z,76.72
2019-03-28T16:26:32.887Z,78.02
2019-03-28T16:29:03.484Z,80.18
2019-03-28T16:31:34.095Z,77.58
2019-03-28T16:34:07.268Z,78.25
2019-03-28T16:36:37.017Z,74.97
2019-03-28T16:39:08.579Z,79.16
2019-03-28T16:41:40.813Z,77.52
2019-03-28T16:44:11.431Z,78.47
2019-03-28T16:46:42.578Z,77.28
2019-03-28T16:49:13.184Z,74.86
2019-03-28T16:51:45.133Z,73.96
2019-03-28T16:54:15.727Z,77.85
2019-03-28T16:56:46.381Z,82.44
2019-03-28T16:59:16.983Z,81.16
2019-03-28T17:01:47.607Z,82.19
2019-03-28T17:04:20.971Z,79.26
2019-03-28T17:06:50.941Z,78.87
2019-03-28T17:09:23.542Z,80.99
2019-03-28T17:11:54.166Z,78.33
2019-03-28T17:14:24.777Z,77.06
2019-03-28T17:16:55.864Z,76.24
2019-03-28T17:19:26.519Z,79.98
2019-03-28T17:21:57.383Z,79.45
2019-03-28T17:24:28.139Z,80.55
2019-03-28T17:26:58.919Z,81.25
2019-03-28T17:29:29.765Z,81.81
2019-03-28T17:32:00.384Z,82.52
2019-03-28T17:34:35.228Z,81.91
2019-03-28T17:37:03.306Z,79.69
2019-03-28T17:39:33.997Z,82.06
2019-03-28T17:42:06.226Z,81.14
2019-03-28T17:44:37.562Z,81.34
2019-03-28T17:47:08.602Z,83.34
2019-03-28T17:49:39.257Z,81.88
2019-03-28T17:52:09.904Z,82.44
2019-03-28T17:54:40.536Z,84.88
2019-03-28T17:57:11.548Z,88.36
2019-03-28T17:59:45.207Z,87.70
2019-03-28T18:02:15.536Z,84.37
2019-03-28T18:04:48.175Z,84.13
2019-03-28T18:07:18.541Z,83.27
2019-03-28T18:09:49.157Z,83.02
2019-03-28T18:12:20.058Z,83.13
2019-03-28T18:14:50.947Z,84.54
2019-03-28T18:17:21.921Z,86.23
2019-03-28T18:19:52.517Z,82.84
2019-03-28T18:22:23.143Z,82.06
2019-03-28T18:24:53.739Z,80.45
2019-03-28T18:27:24.398Z,79.86
2019-03-28T18:29:55.995Z,80.80
2019-03-28T18:32:26.864Z,82.12
2019-03-28T18:35:05.279Z,81.65
2019-03-28T18:37:30.075Z,80.99
2019-03-28T18:40:03.938Z,83.94
2019-03-28T18:42:33.092Z,81.85
2019-03-28T18:45:03.726Z,86.10
2019-03-28T18:47:35.350Z,84.47
2019-03-28T18:50:06.951Z,82.20
2019-03-28T18:52:37.579Z,81.67
2019-03-28T18:55:09.184Z,82.16
2019-03-28T18:57:40.016Z,80.92
2019-03-28T19:00:11.001Z,80.22
2019-03-28T19:02:41.712Z,79.42
2019-03-28T19:05:19.716Z,80.12
2019-03-28T19:07:44.876Z,81.25
2019-03-28T19:10:15.573Z,81.40
2019-03-28T19:12:47.225Z,81.15
2019-03-28T19:15:18.522Z,82.03
2019-03-28T19:17:49.428Z,82.89
2019-03-28T19:20:20.519Z,80.38
2019-03-28T19:22:51.130Z,79.26
2019-03-28T19:25:21.741Z,79.46
2019-03-28T19:27:52.378Z,86.34
2019-03-28T19:30:31.942Z,83.28
2019-03-28T19:33:06.672Z,85.99
2019-03-28T19:35:36.627Z,87.26
2019-03-28T19:38:09.131Z,88.13
2019-03-28T19:40:39.662Z,84.20
2019-03-28T19:43:20.613Z,83.77
2019-03-28T19:45:43.587Z,86.61
2019-03-28T19:48:14.198Z,85.97
2019-03-28T19:50:44.827Z,86.21
2019-03-28T19:53:15.467Z,87.89
2019-03-28T19:55:46.098Z,85.93
2019-03-28T19:58:16.897Z,83.93
2019-03-28T20:00:47.541Z,81.53
2019-03-28T20:03:18.413Z,83.59
2019-03-28T20:05:50.088Z,83.93
2019-03-28T20:08:21.000Z,82.25
2019-03-28T20:10:51.616Z,84.43
2019-03-28T20:13:22.274Z,82.01
2019-03-28T20:15:52.881Z,84.35
2019-03-28T20:18:23.579Z,84.19
2019-03-28T20:20:55.694Z,85.34
2019-03-28T20:23:26.475Z,85.67
2019-03-28T20:25:57.061Z,87.53
2019-03-28T20:28:27.686Z,85.34
2019-03-28T20:30:58.315Z,87.50
2019-03-28T20:33:29.007Z,86.69
2019-03-28T20:36:18.546Z,84.02
2019-03-28T20:38:31.957Z,83.79
2019-03-28T20:41:02.588Z,84.96
2019-03-28T20:43:33.476Z,84.24
2019-03-28T20:46:04.109Z,85.70
2019-03-28T20:48:38.690Z,87.44
2019-03-28T20:51:08.180Z,86.50
2019-03-28T20:53:39.090Z,88.23
2019-03-28T20:56:09.990Z,85.90
2019-03-28T20:58:40.739Z,87.17
2019-03-28T21:01:11.356Z,86.89
2019-03-28T21:03:42.224Z,86.36
2019-03-28T21:06:15.519Z,87.36
2019-03-28T21:08:45.774Z,88.15
2019-03-28T21:11:16.383Z,88.41
2019-03-28T21:13:47.034Z,87.13
2019-03-28T21:16:19.286Z,84.36
2019-03-28T21:18:49.955Z,85.68
2019-03-28T21:21:20.598Z,85.16
2019-03-28T21:23:51.227Z,85.68
2019-03-28T21:26:21.963Z,83.64
2019-03-28T21:28:52.643Z,84.10
2019-03-28T21:31:23.311Z,83.33
2019-03-28T21:33:55.056Z,84.17
2019-03-28T21:36:30.118Z,84.66
2019-03-28T21:38:58.173Z,85.01
2019-03-28T21:41:28.789Z,86.68
2019-03-28T21:43:59.441Z,84.77
2019-03-28T21:46:30.035Z,87.63
2019-03-28T21:49:00.661Z,88.29
2019-03-28T21:51:31.260Z,87.52
2019-03-28T21:54:04.894Z,87.47
2019-03-28T21:56:34.457Z,85.99
2019-03-28T21:59:05.155Z,85.02
2019-03-28T22:01:36.051Z,83.88
2019-03-28T22:04:06.687Z,82.60
2019-03-28T22:06:42.733Z,84.10
2019-03-28T22:09:09.871Z,86.12
2019-03-28T22:11:42.301Z,86.51
2019-03-28T22:14:13.734Z,86.22
2019-03-28T22:16:44.449Z,86.63
2019-03-28T22:19:15.071Z,87.83
2019-03-28T22:21:45.679Z,87.38
2019-03-28T22:24:16.306Z,86.45
2019-03-28T22:26:46.905Z,87.37
2019-03-28T22:29:17.646Z,85.31
2019-03-28T22:31:48.249Z,85.61
2019-03-28T22:34:18.882Z,84.72
2019-03-28T22:36:57.033Z,85.40
2019-03-28T22:39:21.832Z,84.42
2019-03-28T22:41:52.521Z,83.63
2019-03-28T22:44:23.201Z,83.94
2019-03-28T22:46:53.806Z,83.79
2019-03-28T22:49:24.473Z,85.96
2019-03-28T22:51:55.048Z,84.18
2019-03-28T22:54:25.670Z,83.52
2019-03-28T22:56:56.299Z,85.40
2019-03-28T22:59:28.003Z,83.65
2019-03-28T23:01:58.593Z,84.14
2019-03-28T23:04:29.922Z,83.89
2019-03-28T23:07:10.326Z,85.60
2019-03-28T23:09:33.089Z,83.59
2019-03-28T23:12:03.959Z,84.08
2019-03-28T23:14:34.585Z,83.87
2019-03-28T23:17:05.196Z,84.24
2019-03-28T23:19:35.809Z,84.46
2019-03-28T23:22:06.421Z,87.50
2019-03-28T23:24:39.021Z,85.86
2019-03-28T23:27:10.802Z,86.86
2019-03-28T23:29:41.861Z,84.94
2019-03-28T23:32:12.994Z,84.67
2019-03-28T23:34:44.850Z,87.97
2019-03-28T23:37:24.607Z,86.31
2019-03-28T23:39:48.236Z,84.71
2019-03-28T23:42:19.076Z,87.83
2019-03-28T23:44:49.708Z,87.16
2019-03-28T23:47:20.299Z,86.30
2019-03-28T23:49:50.924Z,86.76
2019-03-28T23:52:21.554Z,85.95
2019-03-28T23:54:52.806Z,84.49
2019-03-28T23:57:23.479Z,84.55
2019-03-28T23:59:54.127Z,83.73
